createdAt,value
2023-01-24T00:01:40.225Z,101890.39
2023-01-24T00:04:13.208Z,101887.05
2023-01-24T00:06:45.906Z,101886.28
2023-01-24T00:09:18.750Z,101881.13
2023-01-24T00:11:51.542Z,101886.63
2023-01-24T00:14:24.397Z,101882.03
2023-01-24T00:16:57.225Z,101888.05
2023-01-24T00:19:30.152Z,101885.66
2023-01-24T00:22:05.494Z,101884.72
2023-01-24T00:24:38.613Z,101877.16
2023-01-24T00:27:11.700Z,101880.98
2023-01-24T00:29:44.503Z,101882.37
2023-01-24T00:32:17.306Z,101884.53
2023-01-24T00:34:50.185Z,101880.65
2023-01-24T00:37:23.817Z,101882.47
2023-01-24T00:39:56.904Z,101882.78
2023-01-24T00:42:29.968Z,101875.77
2023-01-24T00:45:04.455Z,101874.08
2023-01-24T00:47:37.605Z,101874.78
2023-01-24T00:50:11.641Z,101867.27
2023-01-24T00:52:45.293Z,101870.20
2023-01-24T00:55:19.845Z,101871.28
2023-01-24T00:57:52.859Z,101867.03
2023-01-24T01:00:27.411Z,101868.11
2023-01-24T01:03:00.365Z,101866.63
2023-01-24T01:05:33.480Z,101868.58
2023-01-24T01:08:06.859Z,101863.77
2023-01-24T01:10:40.594Z,101863.72
2023-01-24T01:13:15.537Z,101865.38
2023-01-24T01:15:48.462Z,101866.28
2023-01-24T01:18:21.656Z,101869.92
2023-01-24T01:20:54.914Z,101864.27
2023-01-24T01:23:27.845Z,101870.80
2023-01-24T01:26:06.883Z,101870.26
2023-01-24T01:28:40.084Z,101862.38
2023-01-24T01:31:13.004Z,101861.42
2023-01-24T01:33:48.872Z,101871.84
2023-01-24T01:36:21.622Z,101872.91
2023-01-24T01:38:54.700Z,101871.22
2023-01-24T01:41:28.505Z,101875.77
2023-01-24T01:44:40.925Z,101874.45
2023-01-24T01:47:36.510Z,101872.97
2023-01-24T01:50:30.390Z,101868.72
2023-01-24T01:53:03.908Z,101872.02
2023-01-24T01:55:38.650Z,101866.69
2023-01-24T01:58:11.387Z,101871.44
2023-01-24T02:00:46.033Z,101870.66
2023-01-24T02:03:41.634Z,101865.54
2023-01-24T02:06:34.120Z,101867.56
2023-01-24T02:09:08.035Z,101866.78
2023-01-24T02:11:42.253Z,101866.73
2023-01-24T02:14:37.182Z,101872.94
2023-01-24T02:17:10.212Z,101874.13
2023-01-24T02:19:59.805Z,101877.02
2023-01-24T02:22:49.782Z,101872.97
2023-01-24T02:26:04.300Z,101876.03
2023-01-24T02:28:39.661Z,101878.05
2023-01-24T02:31:12.591Z,101874.34
2023-01-24T02:33:45.890Z,101880.90
2023-01-24T02:36:42.392Z,101889.07
2023-01-24T02:39:19.064Z,101890.14
2023-01-24T02:42:10.768Z,101883.75
2023-01-24T02:44:52.621Z,101883.20
2023-01-24T02:47:29.365Z,101892.49
2023-01-24T02:50:02.954Z,101889.02
2023-01-24T02:52:54.245Z,101889.73
2023-01-24T02:55:27.646Z,101892.45
2023-01-24T02:58:07.337Z,101897.40
2023-01-24T03:00:44.139Z,101902.39
2023-01-24T03:03:18.542Z,101894.14
2023-01-24T03:06:01.823Z,101901.11
2023-01-24T03:08:42.619Z,101903.88
2023-01-24T03:11:17.308Z,101898.39
2023-01-24T03:14:08.415Z,101902.64
2023-01-24T03:16:59.993Z,101900.50
2023-01-24T03:19:51.483Z,101899.27
2023-01-24T03:22:42.383Z,101903.31
2023-01-24T03:25:33.288Z,101900.63
2023-01-24T03:28:25.848Z,101907.36
2023-01-24T03:31:16.638Z,101903.89
2023-01-24T03:34:07.461Z,101901.53
2023-01-24T03:36:40.484Z,101905.79
2023-01-24T03:39:32.273Z,101897.74
2023-01-24T03:42:05.967Z,101888.95
2023-01-24T03:44:39.303Z,101884.16
2023-01-24T03:47:12.089Z,101880.33
2023-01-24T03:50:03.087Z,101887.63
2023-01-24T03:52:36.540Z,101887.75
2023-01-24T03:55:11.756Z,101887.42
2023-01-24T03:57:46.914Z,101885.94
2023-01-24T04:00:21.283Z,101893.81
2023-01-24T04:02:56.197Z,101890.89
2023-01-24T04:05:29.354Z,101898.98
2023-01-24T04:08:02.397Z,101896.26
2023-01-24T04:10:35.491Z,101901.58
2023-01-24T04:13:08.381Z,101896.83
2023-01-24T04:15:42.917Z,101895.89
2023-01-24T04:18:29.714Z,101906.12
2023-01-24T04:21:06.956Z,101906.12
2023-01-24T04:23:41.593Z,101905.05
2023-01-24T04:26:15.418Z,101918.22
2023-01-24T04:28:48.684Z,101921.64
2023-01-24T04:31:22.314Z,101923.29
2023-01-24T04:34:11.822Z,101923.83
2023-01-24T04:36:44.537Z,101923.66
2023-01-24T04:39:18.049Z,101922.22
2023-01-24T04:41:52.402Z,101926.80
2023-01-24T04:44:25.406Z,101926.97
2023-01-24T04:46:58.770Z,101922.30
2023-01-24T04:49:31.864Z,101922.20
2023-01-24T04:52:04.691Z,101927.98
2023-01-24T04:54:43.166Z,101928.27
2023-01-24T04:57:16.048Z,101931.69
2023-01-24T04:59:49.280Z,101928.63
2023-01-24T05:02:24.571Z,101933.59
2023-01-24T05:04:57.976Z,101942.17
2023-01-24T05:07:31.565Z,101940.77
2023-01-24T05:10:06.791Z,101937.84
2023-01-24T05:12:41.114Z,101943.01
2023-01-24T05:15:15.726Z,101951.31
2023-01-24T05:17:49.096Z,101946.19
2023-01-24T05:20:23.778Z,101951.31
2023-01-24T05:23:00.838Z,101957.45
2023-01-24T05:25:34.538Z,101951.34
2023-01-24T05:28:08.425Z,101952.28
2023-01-24T05:30:43.241Z,101954.63
2023-01-24T05:33:17.779Z,101952.56
2023-01-24T05:35:51.081Z,101956.20
2023-01-24T05:38:24.050Z,101962.95
2023-01-24T05:41:08.521Z,101964.39
2023-01-24T05:43:42.053Z,101970.91
2023-01-24T05:46:22.403Z,101970.21
2023-01-24T05:48:57.461Z,101973.47
2023-01-24T05:51:30.850Z,101974.05
2023-01-24T05:54:03.853Z,101973.89
2023-01-24T05:56:54.981Z,101987.11
2023-01-24T05:59:28.293Z,101988.96
2023-01-24T06:02:02.555Z,101992.84
2023-01-24T06:04:35.893Z,101989.27
2023-01-24T06:07:08.859Z,101987.30
2023-01-24T06:09:41.994Z,101988.29
2023-01-24T06:12:15.095Z,101990.53
2023-01-24T06:14:48.624Z,101996.59
2023-01-24T06:17:21.721Z,101997.09
2023-01-24T06:19:55.155Z,101995.02
2023-01-24T06:22:52.972Z,102000.66
2023-01-24T06:25:28.636Z,102002.80
2023-01-24T06:28:02.103Z,102004.20
2023-01-24T06:30:35.727Z,102000.58
2023-01-24T06:33:33.965Z,102004.84
2023-01-24T06:36:32.368Z,101998.86
2023-01-24T06:39:07.873Z,101999.48
2023-01-24T06:41:41.171Z,102004.61
2023-01-24T06:44:14.654Z,101998.78
2023-01-24T06:46:48.058Z,102003.59
2023-01-24T06:49:21.000Z,102002.39
2023-01-24T06:51:54.524Z,102008.79
2023-01-24T06:54:27.284Z,102008.47
2023-01-24T06:57:00.092Z,102018.05
2023-01-24T06:59:34.479Z,102009.56
2023-01-24T07:02:07.886Z,102016.13
2023-01-24T07:04:41.475Z,102014.07
2023-01-24T07:07:15.375Z,102014.33
2023-01-24T07:09:48.256Z,102008.33
2023-01-24T07:12:21.099Z,102000.12
2023-01-24T07:14:54.098Z,102003.42
2023-01-24T07:17:27.221Z,102004.03
2023-01-24T07:20:01.140Z,102009.57
2023-01-24T07:22:37.184Z,101993.46
2023-01-24T07:25:22.464Z,102002.02
2023-01-24T07:27:55.868Z,102004.24
2023-01-24T07:30:30.385Z,102002.96
2023-01-24T07:33:04.041Z,102002.80
2023-01-24T07:35:37.585Z,102010.19
2023-01-24T07:38:10.989Z,102006.18
2023-01-24T07:40:44.384Z,102005.98
2023-01-24T07:43:17.643Z,102004.53
2023-01-24T07:45:52.856Z,102008.58
2023-01-24T07:48:25.918Z,102009.03
2023-01-24T07:51:03.201Z,102006.75
2023-01-24T07:53:36.773Z,102010.67
2023-01-24T07:56:17.563Z,102014.05
2023-01-24T07:58:45.655Z,102014.70
2023-01-24T08:01:24.926Z,102016.80
2023-01-24T08:03:59.689Z,102007.15
2023-01-24T08:06:33.088Z,102008.47
2023-01-24T08:09:07.103Z,102006.88
2023-01-24T08:11:40.112Z,102002.53
2023-01-24T08:14:13.349Z,102001.28
2023-01-24T08:16:46.257Z,101992.34
2023-01-24T08:19:34.533Z,101995.13
2023-01-24T08:21:53.876Z,101990.98
2023-01-24T08:24:27.456Z,101982.03
2023-01-24T08:27:01.871Z,101982.30
2023-01-24T08:29:35.571Z,101986.70
2023-01-24T08:32:08.609Z,101984.48
2023-01-24T08:34:41.725Z,101983.94
2023-01-24T08:37:14.587Z,101977.22
2023-01-24T08:39:47.879Z,101977.44
2023-01-24T08:42:21.282Z,101976.22
2023-01-24T08:44:54.347Z,101973.45
2023-01-24T08:47:28.513Z,101969.61
2023-01-24T08:50:02.167Z,101975.87
2023-01-24T08:52:34.991Z,101968.59
2023-01-24T08:55:08.475Z,101972.92
2023-01-24T08:57:41.655Z,101961.59
2023-01-24T09:00:16.180Z,101960.48
2023-01-24T09:02:48.304Z,101960.66
2023-01-24T09:05:21.812Z,101961.39
2023-01-24T09:07:54.731Z,101956.45
2023-01-24T09:10:27.779Z,101952.63
2023-01-24T09:13:01.125Z,101953.20
2023-01-24T09:15:34.857Z,101962.05
2023-01-24T09:18:08.076Z,101957.12
2023-01-24T09:20:41.617Z,101948.84
2023-01-24T09:23:16.088Z,101946.66
2023-01-24T09:25:54.345Z,101942.05
2023-01-24T09:28:27.423Z,101934.92
2023-01-24T09:31:00.419Z,101925.37
2023-01-24T09:33:33.932Z,101925.74
2023-01-24T09:36:07.253Z,101923.19
2023-01-24T09:38:40.304Z,101920.12
2023-01-24T09:41:42.437Z,101914.27
2023-01-24T09:44:24.853Z,101915.00
2023-01-24T09:46:58.631Z,101905.69
2023-01-24T09:49:51.188Z,101903.52
2023-01-24T09:52:39.908Z,101897.28
2023-01-24T09:55:27.445Z,101887.95
2023-01-24T09:58:34.397Z,101887.41
2023-01-24T10:01:14.011Z,101882.84
2023-01-24T10:03:47.502Z,101880.14
2023-01-24T10:06:24.837Z,101877.58
2023-01-24T10:09:05.509Z,101873.20
2023-01-24T10:11:57.887Z,101877.81
2023-01-24T10:14:53.391Z,101876.88
2023-01-24T10:17:53.504Z,101868.63
2023-01-24T10:20:49.251Z,101861.84
2023-01-24T10:23:27.192Z,101855.60
2023-01-24T10:26:22.721Z,101853.22
2023-01-24T10:28:58.933Z,101854.89
2023-01-24T10:31:39.374Z,101855.84
2023-01-24T10:34:40.771Z,101863.02
2023-01-24T10:37:23.107Z,101854.56
2023-01-24T10:39:56.134Z,101850.17
2023-01-24T10:42:32.259Z,101845.79
2023-01-24T10:45:22.489Z,101848.17
2023-01-24T10:48:02.543Z,101846.88
2023-01-24T10:50:45.233Z,101844.50
2023-01-24T10:53:31.036Z,101843.78
2023-01-24T10:56:05.938Z,101840.08
2023-01-24T10:59:04.455Z,101838.08
2023-01-24T11:01:49.168Z,101834.22
2023-01-24T11:04:26.792Z,101831.80
2023-01-24T11:06:59.620Z,101826.13
2023-01-24T11:09:35.730Z,101822.28
2023-01-24T11:12:10.657Z,101823.19
2023-01-24T11:14:43.566Z,101823.94
2023-01-24T11:17:39.058Z,101814.41
2023-01-24T11:20:30.999Z,101811.65
2023-01-24T11:23:17.916Z,101809.61
2023-01-24T11:26:01.558Z,101808.70
2023-01-24T11:28:37.994Z,101811.80
2023-01-24T11:31:24.327Z,101805.38
2023-01-24T11:34:43.822Z,101802.09
2023-01-24T11:37:24.282Z,101791.05
2023-01-24T11:40:16.578Z,101795.50
2023-01-24T11:43:13.444Z,101788.53
2023-01-24T11:45:59.404Z,101789.64
2023-01-24T11:48:57.888Z,101785.22
2023-01-24T11:52:05.375Z,101783.94
2023-01-24T11:55:05.889Z,101787.62
2023-01-24T11:57:55.606Z,101784.14
2023-01-24T12:00:41.654Z,101783.94
2023-01-24T12:03:41.419Z,101777.16
2023-01-24T12:06:31.737Z,101778.62
2023-01-24T12:09:22.987Z,101779.18
2023-01-24T12:12:13.013Z,101778.97
2023-01-24T12:15:16.082Z,101769.95
2023-01-24T12:18:06.004Z,101769.59
2023-01-24T12:21:02.281Z,101768.86
2023-01-24T12:23:55.583Z,101768.69
2023-01-24T12:26:32.602Z,101775.63
2023-01-24T12:29:27.135Z,101768.09
2023-01-24T12:32:31.669Z,101762.04
2023-01-24T12:35:30.310Z,101767.73
2023-01-24T12:38:28.865Z,101763.85
2023-01-24T12:41:38.196Z,101766.45
2023-01-24T12:44:33.505Z,101759.08
2023-01-24T12:47:25.903Z,101762.19
2023-01-24T12:50:40.633Z,101764.56
2023-01-24T12:53:42.687Z,101766.59
2023-01-24T12:56:35.192Z,101753.33
2023-01-24T12:59:11.986Z,101752.79
2023-01-24T13:02:23.505Z,101748.92
2023-01-24T13:05:30.288Z,101753.35
2023-01-24T13:08:17.457Z,101752.41
2023-01-24T13:11:25.056Z,101758.84
2023-01-24T13:14:20.072Z,101756.66
2023-01-24T13:17:17.041Z,101748.37
2023-01-24T13:20:06.510Z,101755.00
2023-01-24T13:23:01.189Z,101752.42
2023-01-24T13:25:38.817Z,101753.88
2023-01-24T13:28:42.541Z,101750.77
2023-01-24T13:31:53.233Z,101754.46
2023-01-24T13:34:30.442Z,101746.22
2023-01-24T13:37:05.015Z,101754.31
2023-01-24T13:39:47.321Z,101754.53
2023-01-24T13:42:24.865Z,101752.33
2023-01-24T13:44:57.613Z,101755.98
2023-01-24T13:47:36.156Z,101745.52
2023-01-24T13:50:18.572Z,101745.73
2023-01-24T13:52:57.920Z,101751.80
2023-01-24T13:55:35.559Z,101749.97
2023-01-24T13:58:21.676Z,101752.52
2023-01-24T14:00:57.996Z,101749.23
2023-01-24T14:03:38.174Z,101754.38
2023-01-24T14:06:14.951Z,101749.77
2023-01-24T14:08:57.929Z,101752.36
2023-01-24T14:11:36.855Z,101746.84
2023-01-24T14:14:32.687Z,101749.05
2023-01-24T14:17:28.682Z,101746.27
2023-01-24T14:20:01.649Z,101754.36
2023-01-24T14:22:38.364Z,101750.13
2023-01-24T14:25:33.861Z,101747.56
2023-01-24T14:28:27.478Z,101755.44
2023-01-24T14:31:09.064Z,101753.05
2023-01-24T14:34:04.794Z,101756.01
2023-01-24T14:36:40.164Z,101766.81
2023-01-24T14:39:27.971Z,101764.81
2023-01-24T14:42:04.243Z,101762.05
2023-01-24T14:44:58.621Z,101764.84
2023-01-24T14:47:32.049Z,101762.79
2023-01-24T14:50:06.355Z,101758.20
2023-01-24T14:52:41.059Z,101763.38
2023-01-24T14:55:21.533Z,101772.93
2023-01-24T14:57:54.622Z,101769.06
2023-01-24T15:00:28.123Z,101765.77
2023-01-24T15:03:06.996Z,101769.44
2023-01-24T15:05:41.585Z,101762.81
2023-01-24T15:08:19.260Z,101767.22
2023-01-24T15:11:02.331Z,101765.58
2023-01-24T15:13:48.111Z,101766.48
2023-01-24T15:16:28.654Z,101766.31
2023-01-24T15:19:08.387Z,101767.97
2023-01-24T15:21:44.651Z,101773.30
2023-01-24T15:24:30.426Z,101763.72
2023-01-24T15:27:06.950Z,101772.53
2023-01-24T15:29:48.964Z,101771.24
2023-01-24T15:32:31.904Z,101781.73
2023-01-24T15:35:30.331Z,101778.59
2023-01-24T15:38:13.513Z,101778.25
2023-01-24T15:41:03.805Z,101780.62
2023-01-24T15:43:50.656Z,101772.72
2023-01-24T15:46:47.204Z,101774.37
2023-01-24T15:49:36.305Z,101771.45
2023-01-24T15:52:19.950Z,101770.34
2023-01-24T15:55:01.864Z,101771.98
2023-01-24T15:57:38.361Z,101764.82
2023-01-24T16:00:16.050Z,101768.48
2023-01-24T16:02:49.584Z,101771.23
2023-01-24T16:05:23.423Z,101767.03
2023-01-24T16:07:56.308Z,101772.70
2023-01-24T16:10:29.602Z,101771.42
2023-01-24T16:13:03.571Z,101774.38
2023-01-24T16:15:36.858Z,101777.85
2023-01-24T16:18:11.809Z,101776.59
2023-01-24T16:20:44.545Z,101780.59
2023-01-24T16:23:17.492Z,101779.88
2023-01-24T16:25:54.206Z,101778.39
2023-01-24T16:28:29.266Z,101773.42
2023-01-24T16:31:06.302Z,101775.66
2023-01-24T16:33:39.889Z,101773.98
2023-01-24T16:36:17.105Z,101773.98
2023-01-24T16:38:50.097Z,101773.61
2023-01-24T16:41:23.642Z,101776.17
2023-01-24T16:43:57.267Z,101771.21
2023-01-24T16:46:30.237Z,101772.31
2023-01-24T16:49:03.052Z,101770.30
2023-01-24T16:51:36.051Z,101766.83
2023-01-24T16:54:08.707Z,101763.13
2023-01-24T16:56:43.815Z,101764.41
2023-01-24T16:59:16.660Z,101764.61
2023-01-24T17:01:50.698Z,101766.28
2023-01-24T17:04:24.098Z,101760.03
2023-01-24T17:07:04.753Z,101759.64
2023-01-24T17:09:38.406Z,101764.23
2023-01-24T17:12:14.711Z,101765.17
2023-01-24T17:14:47.407Z,101769.56
2023-01-24T17:17:20.222Z,101768.45
2023-01-24T17:19:53.217Z,101759.64
2023-01-24T17:22:26.185Z,101765.17
2023-01-24T17:24:59.095Z,101764.43
2023-01-24T17:27:32.995Z,101757.61
2023-01-24T17:30:07.351Z,101764.43
2023-01-24T17:32:40.732Z,101753.95
2023-01-24T17:35:14.209Z,101753.97
2023-01-24T17:37:47.285Z,101746.97
2023-01-24T17:40:20.233Z,101749.92
2023-01-24T17:42:53.261Z,101743.31
2023-01-24T17:45:26.733Z,101732.83
2023-01-24T17:47:59.919Z,101737.42
2023-01-24T17:50:33.064Z,101732.84
2023-01-24T17:53:05.899Z,101732.11
2023-01-24T17:55:39.390Z,101731.55
2023-01-24T17:58:13.503Z,101738.90
2023-01-24T18:00:46.901Z,101738.19
2023-01-24T18:03:21.504Z,101743.53
2023-01-24T18:05:55.765Z,101737.27
2023-01-24T18:08:28.917Z,101737.64
2023-01-24T18:11:13.446Z,101733.41
2023-01-24T18:13:47.035Z,101729.91
2023-01-24T18:16:22.556Z,101729.38
2023-01-24T18:18:55.601Z,101731.03
2023-01-24T18:21:29.148Z,101732.51
2023-01-24T18:24:03.737Z,101738.39
2023-01-24T18:26:38.833Z,101735.06
2023-01-24T18:29:12.459Z,101741.13
2023-01-24T18:31:47.710Z,101738.19
2023-01-24T18:34:20.715Z,101739.48
2023-01-24T18:36:53.783Z,101734.34
2023-01-24T18:39:26.899Z,101736.17
2023-01-24T18:42:04.780Z,101741.31
2023-01-24T18:44:39.412Z,101742.23
2023-01-24T18:47:12.548Z,101739.47
2023-01-24T18:49:46.169Z,101739.85
2023-01-24T18:52:19.875Z,101731.77
2023-01-24T18:54:52.755Z,101737.26
2023-01-24T18:57:25.888Z,101736.72
2023-01-24T18:59:58.649Z,101728.98
2023-01-24T19:02:31.566Z,101730.47
2023-01-24T19:05:05.848Z,101731.20
2023-01-24T19:07:42.055Z,101730.41
2023-01-24T19:10:16.013Z,101728.95
2023-01-24T19:12:49.415Z,101725.06
2023-01-24T19:15:23.014Z,101725.59
2023-01-24T19:17:56.307Z,101718.94
2023-01-24T19:20:29.166Z,101724.45
2023-01-24T19:23:02.343Z,101726.97
2023-01-24T19:25:35.282Z,101721.07
2023-01-24T19:28:08.304Z,101726.91
2023-01-24T19:30:41.722Z,101726.52
2023-01-24T19:33:14.762Z,101730.90
2023-01-24T19:35:48.273Z,101725.37
2023-01-24T19:38:21.819Z,101722.23
2023-01-24T19:40:54.834Z,101720.74
2023-01-24T19:43:29.593Z,101723.30
2023-01-24T19:46:10.871Z,101720.87
2023-01-24T19:48:38.023Z,101719.91
2023-01-24T19:51:12.832Z,101723.38
2023-01-24T19:53:46.083Z,101721.36
2023-01-24T19:56:19.581Z,101720.60
2023-01-24T19:58:52.431Z,101717.45
2023-01-24T20:01:25.725Z,101722.75
2023-01-24T20:04:21.534Z,101723.64
2023-01-24T20:06:34.826Z,101724.72
2023-01-24T20:09:08.799Z,101732.73
2023-01-24T20:11:42.540Z,101730.66
2023-01-24T20:14:15.863Z,101732.84
2023-01-24T20:16:48.888Z,101733.53
2023-01-24T20:19:28.533Z,101730.23
2023-01-24T20:21:57.692Z,101729.84
2023-01-24T20:24:31.360Z,101734.03
2023-01-24T20:27:04.177Z,101728.87
2023-01-24T20:29:37.231Z,101721.51
2023-01-24T20:32:12.492Z,101723.34
2023-01-24T20:34:46.346Z,101718.33
2023-01-24T20:37:19.289Z,101717.73
2023-01-24T20:39:52.379Z,101720.28
2023-01-24T20:42:25.369Z,101722.64
2023-01-24T20:44:58.314Z,101718.80
2023-01-24T20:47:31.323Z,101719.88
2023-01-24T20:50:05.290Z,101720.97
2023-01-24T20:52:38.476Z,101720.77
2023-01-24T20:55:11.863Z,101722.56
2023-01-24T20:57:44.974Z,101721.08
2023-01-24T21:00:19.184Z,101712.48
2023-01-24T21:02:57.368Z,101710.10
2023-01-24T21:05:33.774Z,101721.06
2023-01-24T21:08:06.951Z,101713.03
2023-01-24T21:10:48.919Z,101722.71
2023-01-24T21:13:32.481Z,101721.06
2023-01-24T21:15:57.075Z,101719.23
2023-01-24T21:18:29.855Z,101724.70
2023-01-24T21:21:02.807Z,101720.66
2023-01-24T21:23:37.447Z,101720.33
2023-01-24T21:26:12.783Z,101714.43
2023-01-24T21:28:49.860Z,101721.34
2023-01-24T21:31:24.862Z,101716.56
2023-01-24T21:33:58.019Z,101712.86
2023-01-24T21:36:32.592Z,101721.30
2023-01-24T21:39:08.631Z,101718.53
2023-01-24T21:41:57.187Z,101719.61
2023-01-24T21:44:36.386Z,101717.36
2023-01-24T21:47:11.640Z,101719.38
2023-01-24T21:49:45.048Z,101717.70
2023-01-24T21:52:18.637Z,101718.21
2023-01-24T21:54:51.780Z,101709.22
2023-01-24T21:57:42.334Z,101702.05
2023-01-24T22:00:18.147Z,101703.84
2023-01-24T22:02:53.012Z,101693.94
2023-01-24T22:05:26.350Z,101699.36
2023-01-24T22:07:59.490Z,101698.42
2023-01-24T22:10:32.377Z,101698.73
2023-01-24T22:13:05.593Z,101704.35
2023-01-24T22:15:39.593Z,101703.24
2023-01-24T22:18:14.148Z,101703.95
2023-01-24T22:20:47.200Z,101703.41
2023-01-24T22:23:24.759Z,101701.94
2023-01-24T22:26:08.369Z,101694.63
2023-01-24T22:28:41.781Z,101692.57
2023-01-24T22:31:15.557Z,101691.45
2023-01-24T22:33:48.897Z,101692.17
2023-01-24T22:36:22.152Z,101693.95
2023-01-24T22:38:55.128Z,101690.85
2023-01-24T22:41:28.001Z,101683.88
2023-01-24T22:44:00.812Z,101687.35
2023-01-24T22:46:33.707Z,101682.23
2023-01-24T22:49:06.745Z,101675.63
2023-01-24T22:51:39.610Z,101672.88
2023-01-24T22:54:12.707Z,101672.14
2023-01-24T22:56:45.759Z,101677.96
2023-01-24T22:59:18.804Z,101679.20
2023-01-24T23:01:52.044Z,101678.43
2023-01-24T23:04:24.842Z,101675.53
2023-01-24T23:06:57.634Z,101679.88
2023-01-24T23:09:30.419Z,101683.88
2023-01-24T23:12:03.346Z,101677.41
2023-01-24T23:14:55.131Z,101678.08
2023-01-24T23:17:28.744Z,101674.25
2023-01-24T23:20:19.230Z,101681.18
2023-01-24T23:22:52.165Z,101679.90
2023-01-24T23:25:26.118Z,101679.33
2023-01-24T23:27:59.412Z,101679.70
2023-01-24T23:31:04.488Z,101679.70
2023-01-24T23:33:43.270Z,101675.66
2023-01-24T23:36:16.094Z,101673.80
2023-01-24T23:38:49.003Z,101672.89
2023-01-24T23:41:21.834Z,101674.55
2023-01-24T23:43:54.632Z,101669.77
2023-01-24T23:46:27.632Z,101672.89
2023-01-24T23:49:00.646Z,101669.97
2023-01-24T23:51:33.761Z,101667.04
2023-01-24T23:54:06.723Z,101661.39
2023-01-24T23:56:40.055Z,101669.42
2023-01-24T23:59:12.871Z,101666.46
